Ertholm — OVJX — position and weather

sailwx.info

Track history (hours):
 
Tides and Currents Weather Stations Pressure Air Temp Water Temp Dewpoint Dewpoint Depression Visibility Wind Speed Wind Dir Waves Ship Positions

Ertholm

Last reported at 2017-Aug-24 08:30 UTC. Time now 2017-Aug-24 08:39 UTC.
Position N 55°17' E 015°05'.

Length 38 m; draft 2.3 m.

Type: Ship. MMSI: 219000751.

Date/timePositionNaut miles runAvg speedWind from/ knotsBaromVisibWave heightAir tempDewpointWater temp
2017-Aug-24 08:30N 55°17' E 015°05'611.5
2017-Aug-24 08:00N 55°13' E 014°58'0 0.0
2017-Aug-24 07:30N 55°13' E 014°58'0 0.0
2017-Aug-24 06:57N 55°13' E 014°58'0 0.0
2017-Aug-24 06:29N 55°13' E 014°58'0 0.0
2017-Aug-24 06:00N 55°13' E 014°58'0 0.0
2017-Aug-24 05:30N 55°13' E 014°58'0 0.0
2017-Aug-24 05:01N 55°13' E 014°58'0 0.0
2017-Aug-24 04:29N 55°13' E 014°58'0 0.0
2017-Aug-24 04:00N 55°13' E 014°58'0 0.0
2017-Aug-24 03:29N 55°13' E 014°58'0 0.0
2017-Aug-24 03:00N 55°13' E 014°58'0 0.0
2017-Aug-24 02:31N 55°13' E 014°58'0 0.0
2017-Aug-24 02:01N 55°13' E 014°58'0 0.0
2017-Aug-24 01:30N 55°13' E 014°58'0 0.0
2017-Aug-24 00:57N 55°13' E 014°58'0 0.0
2017-Aug-24 00:30N 55°13' E 014°58'0 0.0
2017-Aug-24 00:00N 55°13' E 014°58'0 0.0
2017-Aug-23 23:30N 55°13' E 014°58'0 0.0
2017-Aug-23 22:59N 55°13' E 014°58'0 0.0
2017-Aug-23 22:30N 55°13' E 014°58'0 0.0
2017-Aug-23 21:59N 55°13' E 014°58'0 0.0
2017-Aug-23 21:27N 55°13' E 014°58'0 0.0
2017-Aug-23 20:59N 55°13' E 014°58'0 0.0
2017-Aug-23 20:30N 55°13' E 014°58'0 0.0
2017-Aug-23 20:00N 55°13' E 014°58'0 0.0
2017-Aug-23 19:30N 55°13' E 014°58'0 0.0
2017-Aug-23 19:00N 55°13' E 014°58'0 0.0
2017-Aug-23 18:31N 55°13' E 014°58'0 0.0
2017-Aug-23 18:00N 55°13' E 014°58'0 0.0
2017-Aug-23 17:29N 55°13' E 014°58'0 0.0
2017-Aug-23 16:52N 55°13' E 014°58'0 0.0
2017-Aug-23 16:31N 55°13' E 014°58'0 0.0
2017-Aug-23 15:59N 55°13' E 014°58'0 0.0
2017-Aug-23 15:30N 55°13' E 014°58'1 3.0
2017-Aug-23 15:00N 55°14' E 014°60'8 8.4
2017-Aug-23 14:00N 55°19' E 015°11'510.4
2017-Aug-23 13:31N 55°16' E 015°04'5 9.3
2017-Aug-23 13:00N 55°13' E 014°58'4 8.9
2017-Aug-23 12:30N 55°16' E 015°04'510.7
2017-Aug-23 12:00N 55°19' E 015°11'0 0.0
2017-Aug-23 11:30N 55°19' E 015°11'4 8.2
2017-Aug-23 11:01N 55°17' E 015°06'611.2
2017-Aug-23 10:30N 55°13' E 014°58'1 1.7
2017-Aug-23 10:00N 55°13' E 014°59'612.5
2017-Aug-23 09:30N 55°18' E 015°08'3 5.2
2017-Aug-23 09:00N 55°19' E 015°11'5 9.3
2017-Aug-23 08:30N 55°17' E 015°05'510.5
2017-Aug-23 08:01N 55°13' E 014°58'0 0.0
2017-Aug-23 07:30N 55°13' E 014°58'0 0.0
2017-Aug-23 06:57N 55°13' E 014°58'0 0.0
2017-Aug-23 06:28N 55°13' E 014°58'0 0.0
2017-Aug-23 05:59N 55°13' E 014°58'0 0.0
2017-Aug-23 05:29N 55°13' E 014°58'0 0.0
2017-Aug-23 04:53N 55°13' E 014°58'0 0.0
2017-Aug-23 04:27N 55°13' E 014°58'0 0.0
2017-Aug-23 03:59N 55°13' E 014°58'0 0.0
2017-Aug-23 03:28N 55°13' E 014°58'0 0.0
2017-Aug-23 03:01N 55°13' E 014°58'0 0.0
2017-Aug-23 02:30N 55°13' E 014°58'0 0.0
2017-Aug-23 02:00N 55°13' E 014°58'0 0.0
2017-Aug-23 01:31N 55°13' E 014°58'0 0.0
2017-Aug-23 01:00N 55°13' E 014°58'0 0.0
2017-Aug-23 00:30N 55°13' E 014°58'0 0.0
2017-Aug-22 23:57N 55°13' E 014°58'0 0.0
2017-Aug-22 23:28N 55°13' E 014°58'0 0.0
2017-Aug-22 22:59N 55°13' E 014°58'0 0.0
2017-Aug-22 22:26N 55°13' E 014°58'0 0.0
2017-Aug-22 21:58N 55°13' E 014°58'0 0.0
2017-Aug-22 21:24N 55°13' E 014°58'0 0.0
2017-Aug-22 20:50N 55°13' E 014°58'0 0.0
2017-Aug-22 20:22N 55°13' E 014°58'0 0.0
2017-Aug-22 19:49N 55°13' E 014°58'0 0.0
2017-Aug-22 19:27N 55°13' E 014°58'0 0.0
2017-Aug-22 19:00N 55°13' E 014°58'0 0.0
2017-Aug-22 18:28N 55°13' E 014°58'0 0.0
2017-Aug-22 18:00N 55°13' E 014°58'0 0.0
2017-Aug-22 17:30N 55°13' E 014°58'0 0.0
2017-Aug-22 17:00N 55°13' E 014°58'0 0.0
2017-Aug-22 16:28N 55°13' E 014°58'0 0.0
2017-Aug-22 15:58N 55°13' E 014°58'0 0.0
2017-Aug-22 15:31N 55°13' E 014°58'1 2.3
2017-Aug-22 15:00N 55°14' E 014°59'612.5
2017-Aug-22 14:30N 55°18' E 015°08'2 4.1
2017-Aug-22 14:00N 55°19' E 015°10'612.3
2017-Aug-22 13:31N 55°15' E 015°02'3 6.5
2017-Aug-22 13:01N 55°13' E 014°58'510.7
2017-Aug-22 12:30N 55°17' E 015°05'5 9.0
2017-Aug-22 12:00N 55°19' E 015°11'0 0.1
2017-Aug-22 11:30N 55°19' E 015°11'510.8
2017-Aug-22 11:00N 55°18' E 015°02'510.3
2017-Aug-22 10:29N 55°13' E 014°58'1 2.7
2017-Aug-22 10:00N 55°14' E 014°59'5 9.9
2017-Aug-22 09:31N 55°17' E 015°06'4 7.3
2017-Aug-22 09:00N 55°19' E 015°11'4 8.3
2017-Aug-22 08:30N 55°17' E 015°05'611.4
2017-Aug-22 08:00N 55°13' E 014°58'0 0.0
2017-Aug-22 07:31N 55°13' E 014°58'0 0.0
2017-Aug-22 07:00N 55°13' E 014°58'0 0.0
2017-Aug-22 06:29N 55°13' E 014°58'0 0.0
2017-Aug-22 06:00N 55°13' E 014°58'0 0.0
2017-Aug-22 05:30N 55°13' E 014°58'0 0.0
2017-Aug-22 04:58N 55°13' E 014°58'0 0.0
2017-Aug-22 04:30N 55°13' E 014°58'0 0.0
2017-Aug-22 04:00N 55°13' E 014°58'0 0.0
2017-Aug-22 03:30N 55°13' E 014°58'0 0.0
2017-Aug-22 03:01N 55°13' E 014°58'0 0.0
2017-Aug-22 02:31N 55°13' E 014°58'0 0.0
2017-Aug-22 01:59N 55°13' E 014°58'0 0.0
2017-Aug-22 01:28N 55°13' E 014°58'0 0.0
2017-Aug-22 00:58N 55°13' E 014°58'0 0.0
2017-Aug-22 00:30N 55°13' E 014°58'0 0.0
2017-Aug-22 00:00N 55°13' E 014°58'0 0.0
2017-Aug-21 23:29N 55°13' E 014°58'0 0.0
2017-Aug-21 22:59N 55°13' E 014°58'0 0.0
2017-Aug-21 22:31N 55°13' E 014°58'0 0.0
2017-Aug-21 21:59N 55°13' E 014°58'0 0.0
2017-Aug-21 21:29N 55°13' E 014°58'0 0.0
2017-Aug-21 20:59N 55°13' E 014°58'0 0.0
2017-Aug-21 20:30N 55°13' E 014°58'0 0.0
2017-Aug-21 20:01N 55°13' E 014°58'0 0.0
2017-Aug-21 19:30N 55°13' E 014°58'0 0.0
2017-Aug-21 19:01N 55°13' E 014°58'0 0.0
2017-Aug-21 18:30N 55°13' E 014°58'0 0.0
2017-Aug-21 17:59N 55°13' E 014°58'0 0.0
2017-Aug-21 17:30N 55°13' E 014°58'0 0.0
2017-Aug-21 17:00N 55°13' E 014°58'0 0.0
2017-Aug-21 16:29N 55°13' E 014°58'0 0.0
2017-Aug-21 15:59N 55°13' E 014°58'0 0.0
2017-Aug-21 15:30N 55°13' E 014°58'1 2.5
2017-Aug-21 15:01N 55°14' E 014°60'612.4
2017-Aug-21 14:31N 55°18' E 015°08'2 4.0
2017-Aug-21 14:01N 55°19' E 015°10'5 9.6
2017-Aug-21 13:30N 55°17' E 015°03'5 9.2
2017-Aug-21 13:00N 55°13' E 014°58'4 8.7
2017-Aug-21 12:30N 55°16' E 015°04'510.9
2017-Aug-21 12:00N 55°19' E 015°11'0 0.2
2017-Aug-21 11:30N 55°19' E 015°11'4 9.0
2017-Aug-21 11:01N 55°18' E 015°04'611.7
2017-Aug-21 10:30N 55°13' E 014°58'2 3.3
2017-Aug-21 10:00N 55°14' E 014°60'510.3
2017-Aug-21 09:31N 55°17' E 015°07'3 6.1
2017-Aug-21 09:00N 55°19' E 015°11'5 9.9
2017-Aug-21 08:31N 55°18' E 015°03'611.6
2017-Aug-21 08:00N 55°13' E 014°58'0 0.0
2017-Aug-21 07:30N 55°13' E 014°58'0 0.0
2017-Aug-21 07:00N 55°13' E 014°58'0 0.0
2017-Aug-21 06:31N 55°13' E 014°58'0 0.0
2017-Aug-21 06:00N 55°13' E 014°58'0 0.0
2017-Aug-21 05:30N 55°13' E 014°58'0 0.0
2017-Aug-21 05:00N 55°13' E 014°58'0 0.0
2017-Aug-21 04:31N 55°13' E 014°58'0 0.0
2017-Aug-21 04:01N 55°13' E 014°58'0 0.0
2017-Aug-21 03:30N 55°13' E 014°58'0 0.0
2017-Aug-21 03:00N 55°13' E 014°58'0 0.0
2017-Aug-21 02:30N 55°13' E 014°58'0 0.0
2017-Aug-21 02:01N 55°13' E 014°58'0 0.0
2017-Aug-21 01:30N 55°13' E 014°58'0 0.0
2017-Aug-21 01:00N 55°13' E 014°58'0 0.0
2017-Aug-21 00:30N 55°13' E 014°58'0 0.0
2017-Aug-21 00:01N 55°13' E 014°58'0 0.0
2017-Aug-20 23:29N 55°13' E 014°58'0 0.0
2017-Aug-20 22:58N 55°13' E 014°58'0 0.0
2017-Aug-20 22:30N 55°13' E 014°58'0 0.0
2017-Aug-20 22:00N 55°13' E 014°58'0 0.0
2017-Aug-20 21:30N 55°13' E 014°58'0 0.0
2017-Aug-20 21:01N 55°13' E 014°58'0 0.0
2017-Aug-20 20:29N 55°13' E 014°58'0 0.0
2017-Aug-20 20:01N 55°13' E 014°58'0 0.0
2017-Aug-20 19:30N 55°13' E 014°58'0 0.0
2017-Aug-20 19:00N 55°13' E 014°58'0 0.0
2017-Aug-20 18:29N 55°13' E 014°58'0 0.0
2017-Aug-20 18:00N 55°13' E 014°58'0 0.0
2017-Aug-20 17:30N 55°13' E 014°58'0 0.0
2017-Aug-20 17:00N 55°13' E 014°58'0 0.0
2017-Aug-20 16:29N 55°13' E 014°58'0 0.0
2017-Aug-20 16:01N 55°13' E 014°58'0 0.0
2017-Aug-20 15:30N 55°13' E 014°58'2 5.0
2017-Aug-20 15:00N 55°15' E 015°01'510.7
2017-Aug-20 14:30N 55°18' E 015°08'1 2.3
2017-Aug-20 14:00N 55°19' E 015°10'510.2
2017-Aug-20 13:31N 55°16' E 015°02'4 7.8
2017-Aug-20 13:00N 55°13' E 014°58'5 9.7
2017-Aug-20 12:31N 55°16' E 015°04'510.1
2017-Aug-20 12:00N 55°19' E 015°11'0 0.1
2017-Aug-20 11:30N 55°19' E 015°11'4 8.3
2017-Aug-20 11:00N 55°17' E 015°05'611.4
2017-Aug-20 10:30N 55°13' E 014°58'1 2.8
2017-Aug-20 10:00N 55°14' E 014°60'510.0
2017-Aug-20 09:30N 55°17' E 015°06'3 6.6
2017-Aug-20 09:00N 55°19' E 015°11'4 9.0
2017-Aug-20 08:31N 55°17' E 015°04'611.2
2017-Aug-20 08:00N 55°13' E 014°58'0 0.0
2017-Aug-20 07:31N 55°13' E 014°58'0 0.0
2017-Aug-20 07:00N 55°13' E 014°58'0 0.0
2017-Aug-20 06:30N 55°13' E 014°58'0 0.0
2017-Aug-20 05:59N 55°13' E 014°58'0 0.0
2017-Aug-20 05:30N 55°13' E 014°58'0 0.0
2017-Aug-20 05:01N 55°13' E 014°58'0 0.0
2017-Aug-20 04:29N 55°13' E 014°58'0 0.0
2017-Aug-20 03:59N 55°13' E 014°58'0 0.0
2017-Aug-20 03:30N 55°13' E 014°58'0 0.0
2017-Aug-20 03:00N 55°13' E 014°58'0 0.0
2017-Aug-20 02:30N 55°13' E 014°58'0 0.0
2017-Aug-20 02:00N 55°13' E 014°58'0 0.0
2017-Aug-20 01:29N 55°13' E 014°58'0 0.0
2017-Aug-20 00:59N 55°13' E 014°58'0 0.0
2017-Aug-20 00:30N 55°13' E 014°58'0 0.0
2017-Aug-20 00:00N 55°13' E 014°58'0 0.0
2017-Aug-19 23:30N 55°13' E 014°58'0 0.0
2017-Aug-19 23:00N 55°13' E 014°58'0 0.0
2017-Aug-19 22:29N 55°13' E 014°58'0 0.0
2017-Aug-19 22:00N 55°13' E 014°58'0 0.0
2017-Aug-19 21:30N 55°13' E 014°58'0 0.0
2017-Aug-19 20:59N 55°13' E 014°58'0 0.0
2017-Aug-19 20:30N 55°13' E 014°58'0 0.0
2017-Aug-19 20:00N 55°13' E 014°58'0 0.0
2017-Aug-19 19:30N 55°13' E 014°58'0 0.0
2017-Aug-19 19:01N 55°13' E 014°58'0 0.0
2017-Aug-19 18:30N 55°13' E 014°58'0 0.0
2017-Aug-19 18:00N 55°13' E 014°58'0 0.0
2017-Aug-19 17:28N 55°13' E 014°58'0 0.0
2017-Aug-19 17:00N 55°13' E 014°58'0 0.0
2017-Aug-19 16:27N 55°13' E 014°58'0 0.0
2017-Aug-19 16:00N 55°13' E 014°58'0 0.0
2017-Aug-19 15:30N 55°13' E 014°58'1 2.7
2017-Aug-19 15:01N 55°14' E 015°00'8 8.1
2017-Aug-19 14:01N 55°19' E 015°10'510.9
2017-Aug-19 13:30N 55°16' E 015°02'4 8.3
2017-Aug-19 13:01N 55°13' E 014°58'510.2
2017-Aug-19 12:30N 55°16' E 015°06'5 9.4
2017-Aug-19 12:00N 55°19' E 015°11'0 0.0
2017-Aug-19 11:30N 55°19' E 015°11'5 9.7
2017-Aug-19 11:00N 55°17' E 015°03'510.5
2017-Aug-19 10:31N 55°13' E 014°58'1 2.4
2017-Aug-19 10:01N 55°14' E 015°00'510.1
2017-Aug-19 09:30N 55°17' E 015°06'3 6.9
2017-Aug-19 09:00N 55°19' E 015°11'5 9.3
2017-Aug-19 08:30N 55°17' E 015°04'510.7
2017-Aug-19 08:00N 55°13' E 014°58'0 0.0
2017-Aug-19 07:30N 55°13' E 014°58'0 0.0
2017-Aug-19 07:00N 55°13' E 014°58'0 0.0
2017-Aug-19 06:30N 55°13' E 014°58'0 0.0
2017-Aug-19 06:00N 55°13' E 014°58'0 0.0
2017-Aug-19 05:30N 55°13' E 014°58'0 0.0
2017-Aug-19 05:01N 55°13' E 014°58'0 0.0
2017-Aug-19 04:30N 55°13' E 014°58'0 0.0
2017-Aug-19 04:00N 55°13' E 014°58'0 0.0
2017-Aug-19 03:30N 55°13' E 014°58'0 0.0
2017-Aug-19 03:00N 55°13' E 014°58'0 0.0
2017-Aug-19 02:31N 55°13' E 014°58'0 0.0
2017-Aug-19 02:00N 55°13' E 014°58'0 0.0
2017-Aug-19 01:30N 55°13' E 014°58'0 0.0
2017-Aug-19 00:59N 55°13' E 014°58'0 0.0
2017-Aug-19 00:30N 55°13' E 014°58'0 0.0
2017-Aug-19 00:00N 55°13' E 014°58'0 0.0
2017-Aug-18 23:30N 55°13' E 014°58'0 0.0
2017-Aug-18 23:00N 55°13' E 014°58'0 0.0
2017-Aug-18 22:31N 55°13' E 014°58'0 0.0
2017-Aug-18 21:59N 55°13' E 014°58'0 0.0
2017-Aug-18 21:30N 55°13' E 014°58'0 0.0
2017-Aug-18 21:01N 55°13' E 014°58'0 0.0
2017-Aug-18 20:30N 55°13' E 014°58'0 0.0
2017-Aug-18 20:00N 55°13' E 014°58'0 0.0
2017-Aug-18 19:30N 55°13' E 014°58'0 0.0
2017-Aug-18 18:59N 55°13' E 014°58'0 0.0
2017-Aug-18 18:30N 55°13' E 014°58'0 0.0
2017-Aug-18 18:00N 55°13' E 014°58'0 0.0
2017-Aug-18 17:30N 55°13' E 014°58'0 0.0
2017-Aug-18 17:00N 55°13' E 014°58'0 0.0
2017-Aug-18 16:30N 55°13' E 014°58'0 0.0
2017-Aug-18 16:00N 55°13' E 014°58'0 0.0
2017-Aug-18 15:31N 55°13' E 014°58'1 2.6
2017-Aug-18 15:00N 55°14' E 014°60'612.0
2017-Aug-18 14:30N 55°18' E 015°08'4 3.5
2017-Aug-18 13:30N 55°15' E 015°03'4 7.7
2017-Aug-18 13:01N 55°13' E 014°58'5 9.1
2017-Aug-18 12:31N 55°16' E 015°04'510.5
2017-Aug-18 12:00N 55°19' E 015°11'0 0.0
2017-Aug-18 11:30N 55°19' E 015°11'4 7.9
2017-Aug-18 11:00N 55°17' E 015°06'611.5
2017-Aug-18 10:30N 55°13' E 014°58'1 2.3
2017-Aug-18 10:01N 55°14' E 014°60'510.7
2017-Aug-18 09:30N 55°17' E 015°07'3 6.4
2017-Aug-18 09:00N 55°19' E 015°11'4 8.6
2017-Aug-18 08:31N 55°17' E 015°05'611.1
2017-Aug-18 08:01N 55°13' E 014°58'0 0.0
2017-Aug-18 07:30N 55°13' E 014°58'0 0.0
2017-Aug-18 07:00N 55°13' E 014°58'0 0.0
2017-Aug-18 06:30N 55°13' E 014°58'0 0.0
2017-Aug-18 06:00N 55°13' E 014°58'0 0.0
2017-Aug-18 05:27N 55°13' E 014°58'0 0.0
2017-Aug-18 05:00N 55°13' E 014°58'0 0.0
2017-Aug-18 04:30N 55°13' E 014°58'0 0.0
2017-Aug-18 04:00N 55°13' E 014°58'0 0.0
2017-Aug-18 03:30N 55°13' E 014°58'0 0.0
2017-Aug-18 03:01N 55°13' E 014°58'0 0.0
2017-Aug-18 02:31N 55°13' E 014°58'0 0.0
2017-Aug-18 02:00N 55°13' E 014°58'0 0.0
2017-Aug-18 01:31N 55°13' E 014°58'0 0.0
2017-Aug-18 01:01N 55°13' E 014°58'0 0.0
2017-Aug-18 00:30N 55°13' E 014°58'0 0.0
2017-Aug-18 00:01N 55°13' E 014°58'0 0.0
2017-Aug-17 23:30N 55°13' E 014°58'0 0.0
2017-Aug-17 23:01N 55°13' E 014°58'0 0.0
2017-Aug-17 22:30N 55°13' E 014°58'0 0.0
2017-Aug-17 22:01N 55°13' E 014°58'0 0.0
2017-Aug-17 21:30N 55°13' E 014°58'0 0.0
2017-Aug-17 21:00N 55°13' E 014°58'0 0.0
2017-Aug-17 20:30N 55°13' E 014°58'0 0.0
2017-Aug-17 20:00N 55°13' E 014°58'0 0.0
2017-Aug-17 19:30N 55°13' E 014°58'0 0.0
2017-Aug-17 19:00N 55°13' E 014°58'0 0.0
2017-Aug-17 18:31N 55°13' E 014°58'0 0.0
2017-Aug-17 18:01N 55°13' E 014°58'0 0.0
2017-Aug-17 17:30N 55°13' E 014°58'0 0.0
2017-Aug-17 17:00N 55°13' E 014°58'0 0.0
2017-Aug-17 16:31N 55°13' E 014°58'0 0.0
2017-Aug-17 16:00N 55°13' E 014°58'0 0.0
2017-Aug-17 15:30N 55°13' E 014°58'2 3.4
2017-Aug-17 15:00N 55°14' E 015°00'611.8
2017-Aug-17 14:30N 55°18' E 015°08'2 4.6
2017-Aug-17 14:01N 55°19' E 015°11'510.4
2017-Aug-17 13:30N 55°16' E 015°04'5 9.2
2017-Aug-17 13:00N 55°13' E 014°58'4 8.7
2017-Aug-17 12:31N 55°16' E 015°04'510.9
2017-Aug-17 12:00N 55°19' E 015°11'0 0.0
2017-Aug-17 11:30N 55°19' E 015°11'4 8.1
2017-Aug-17 11:00N 55°17' E 015°06'611.3
2017-Aug-17 10:30N 55°13' E 014°58'1 2.8
2017-Aug-17 10:00N 55°14' E 015°00'510.9
2017-Aug-17 09:30N 55°17' E 015°07'3 5.7
2017-Aug-17 09:00N 55°19' E 015°11'4 8.3
2017-Aug-17 08:30N 55°17' E 015°05'611.4
2017-Aug-17 08:00N 55°13' E 014°58'0 0.0
2017-Aug-17 07:30N 55°13' E 014°58'0 0.0
2017-Aug-17 07:00N 55°13' E 014°58'0 0.0
2017-Aug-17 06:30N 55°13' E 014°58'0 0.0
2017-Aug-17 06:00N 55°13' E 014°58'0 0.0
2017-Aug-17 05:30N 55°13' E 014°58'0 0.0
2017-Aug-17 05:00N 55°13' E 014°58'0 0.0
2017-Aug-17 04:30N 55°13' E 014°58'0 0.0
2017-Aug-17 04:01N 55°13' E 014°58'0 0.0
2017-Aug-17 03:30N 55°13' E 014°58'0 0.0
2017-Aug-17 02:59N 55°13' E 014°58'0 0.0
2017-Aug-17 02:30N 55°13' E 014°58'0 0.0
2017-Aug-17 02:00N 55°13' E 014°58'0 0.0
2017-Aug-17 01:30N 55°13' E 014°58'0 0.0
2017-Aug-17 01:01N 55°13' E 014°58'0 0.0
2017-Aug-17 00:30N 55°13' E 014°58'0 0.0
2017-Aug-17 00:00N 55°13' E 014°58'0 0.0
2017-Aug-16 23:30N 55°13' E 014°58'0 0.0
2017-Aug-16 23:00N 55°13' E 014°58'0 0.0
2017-Aug-16 22:31N 55°13' E 014°58'0 0.0
2017-Aug-16 22:01N 55°13' E 014°58'0 0.0
2017-Aug-16 21:30N 55°13' E 014°58'0 0.0
2017-Aug-16 21:00N 55°13' E 014°58'0 0.0
2017-Aug-16 20:31N 55°13' E 014°58'0 0.0
2017-Aug-16 20:00N 55°13' E 014°58'5 9.9
2017-Aug-16 19:30N 55°16' E 015°05'5 9.7
2017-Aug-16 19:00N 55°19' E 015°11'0 0.0
2017-Aug-16 18:30N 55°19' E 015°11'0 0.0
2017-Aug-16 18:00N 55°19' E 015°11'0 0.0
2017-Aug-16 17:30N 55°19' E 015°11'0 0.0
2017-Aug-16 17:00N 55°19' E 015°11'0 0.0
2017-Aug-16 16:30N 55°19' E 015°11'0 0.3
2017-Aug-16 16:01N 55°19' E 015°11'612.9
2017-Aug-16 15:30N 55°15' E 015°03'2 4.7
2017-Aug-16 15:00N 55°14' E 014°60'612.5
2017-Aug-16 14:30N 55°18' E 015°08'3 5.1
2017-Aug-16 14:01N 55°19' E 015°11'510.8
2017-Aug-16 13:30N 55°16' E 015°04'4 8.9
2017-Aug-16 13:00N 55°13' E 014°58'4 9.0
2017-Aug-16 12:30N 55°16' E 015°04'510.8
2017-Aug-16 12:00N 55°19' E 015°11'0 0.1
2017-Aug-16 11:30N 55°19' E 015°11'4 8.0
2017-Aug-16 11:00N 55°17' E 015°06'611.4
2017-Aug-16 10:30N 55°13' E 014°58'0 0.9
2017-Aug-16 10:00N 55°13' E 014°59'510.5
2017-Aug-16 09:30N 55°17' E 015°06'4 8.2
2017-Aug-16 09:00N 55°19' E 015°11'4 8.2
2017-Aug-16 08:31N 55°17' E 015°06'611.3
2017-Aug-16 08:00N 55°13' E 014°58'0 0.0
2017-Aug-16 07:30N 55°13' E 014°58'0 0.0
2017-Aug-16 07:00N 55°13' E 014°58'0 0.0
2017-Aug-16 06:31N 55°13' E 014°58'0 0.0
2017-Aug-16 05:59N 55°13' E 014°58'0 0.0
2017-Aug-16 05:30N 55°13' E 014°58'0 0.0
2017-Aug-16 05:01N 55°13' E 014°58'0 0.0
2017-Aug-16 04:31N 55°13' E 014°58'0 0.0
2017-Aug-16 04:00N 55°13' E 014°58'0 0.0
2017-Aug-16 03:31N 55°13' E 014°58'0 0.0
2017-Aug-16 03:00N 55°13' E 014°58'0 0.0
2017-Aug-16 02:30N 55°13' E 014°58'0 0.0
2017-Aug-16 02:00N 55°13' E 014°58'0 0.0
2017-Aug-16 01:30N 55°13' E 014°58'0 0.0
2017-Aug-16 01:00N 55°13' E 014°58'0 0.0
2017-Aug-16 00:30N 55°13' E 014°58'0 0.0
2017-Aug-16 00:00N 55°13' E 014°58'0 0.0
2017-Aug-15 23:30N 55°13' E 014°58'0 0.0
2017-Aug-15 23:00N 55°13' E 014°58'0 0.0
2017-Aug-15 22:30N 55°13' E 014°58'0 0.0
2017-Aug-15 22:00N 55°13' E 014°58'0 0.0
2017-Aug-15 21:31N 55°13' E 014°58'0 0.0
2017-Aug-15 21:01N 55°13' E 014°58'0 0.0
2017-Aug-15 20:30N 55°13' E 014°58'0 0.0
2017-Aug-15 20:01N 55°13' E 014°58'0 0.0
2017-Aug-15 19:30N 55°13' E 014°58'0 0.0
2017-Aug-15 19:00N 55°13' E 014°58'0 0.0
2017-Aug-15 18:30N 55°13' E 014°58'0 0.0
2017-Aug-15 18:00N 55°13' E 014°58'0 0.0
2017-Aug-15 17:30N 55°13' E 014°58'0 0.0
2017-Aug-15 17:00N 55°13' E 014°58'0 0.0
2017-Aug-15 16:30N 55°13' E 014°58'0 0.0
2017-Aug-15 16:00N 55°13' E 014°58'0 0.0
2017-Aug-15 15:30N 55°13' E 014°58'1 2.0
2017-Aug-15 15:00N 55°13' E 014°59'612.6
2017-Aug-15 14:30N 55°18' E 015°08'2 4.8
2017-Aug-15 14:00N 55°19' E 015°11'611.3
2017-Aug-15 13:30N 55°16' E 015°04'4 8.3
2017-Aug-15 13:01N 55°13' E 014°58'4 8.6
2017-Aug-15 12:30N 55°16' E 015°03'611.2
2017-Aug-15 12:01N 55°19' E 015°11'0 0.1
2017-Aug-15 11:30N 55°19' E 015°11'3 6.9
2017-Aug-15 11:00N 55°17' E 015°06'612.5
2017-Aug-15 10:30N 55°13' E 014°58'1 2.8
2017-Aug-15 10:00N 55°14' E 014°60'510.3
2017-Aug-15 09:31N 55°17' E 015°07'3 6.3
2017-Aug-15 09:00N 55°19' E 015°11'4 7.8
2017-Aug-15 08:30N 55°17' E 015°06'611.8
2017-Aug-15 08:00N 55°13' E 014°58'0 0.0
2017-Aug-15 07:30N 55°13' E 014°58'0 0.0
2017-Aug-15 06:59N 55°13' E 014°58'0 0.0
2017-Aug-15 06:30N 55°13' E 014°58'0 0.0
2017-Aug-15 06:00N 55°13' E 014°58'0 0.0
2017-Aug-15 05:30N 55°13' E 014°58'0 0.0
2017-Aug-15 05:00N 55°13' E 014°58'0 0.0
2017-Aug-15 04:30N 55°13' E 014°58'0 0.0
2017-Aug-15 04:00N 55°13' E 014°58'0 0.0
2017-Aug-15 03:30N 55°13' E 014°58'0 0.0
2017-Aug-15 03:00N 55°13' E 014°58'0 0.0
2017-Aug-15 02:30N 55°13' E 014°58'0 0.0
2017-Aug-15 02:00N 55°13' E 014°58'0 0.0
2017-Aug-15 01:30N 55°13' E 014°58'0 0.0
2017-Aug-15 01:00N 55°13' E 014°58'0 0.0
2017-Aug-15 00:31N 55°13' E 014°58'0 0.0
2017-Aug-15 00:00N 55°13' E 014°58'0 0.0
2017-Aug-14 23:30N 55°13' E 014°58'0 0.0
2017-Aug-14 23:00N 55°13' E 014°58'0 0.0
2017-Aug-14 22:31N 55°13' E 014°58'0 0.0
2017-Aug-14 22:00N 55°13' E 014°58'0 0.0
2017-Aug-14 21:30N 55°13' E 014°58'0 0.0
2017-Aug-14 21:00N 55°13' E 014°58'0 0.0
2017-Aug-14 20:30N 55°13' E 014°58'0 0.0
2017-Aug-14 20:00N 55°13' E 014°58'0 0.0
2017-Aug-14 19:30N 55°13' E 014°58'0 0.0
2017-Aug-14 19:00N 55°13' E 014°58'0 0.0
2017-Aug-14 18:31N 55°13' E 014°58'0 0.0
2017-Aug-14 18:01N 55°13' E 014°58'0 0.0
2017-Aug-14 17:30N 55°13' E 014°58'0 0.0
2017-Aug-14 17:00N 55°13' E 014°58'0 0.0
2017-Aug-14 16:30N 55°13' E 014°58'0 0.0
2017-Aug-14 16:00N 55°13' E 014°58'0 0.0
2017-Aug-14 15:30N 55°13' E 014°58'1 1.0
2017-Aug-14 15:00N 55°13' E 014°59'612.9
2017-Aug-14 14:30N 55°18' E 015°07'3 5.9
2017-Aug-14 14:01N 55°19' E 015°11'510.9
2017-Aug-14 13:30N 55°16' E 015°04'4 8.7
2017-Aug-14 13:01N 55°13' E 014°58'5 9.6
2017-Aug-14 12:30N 55°16' E 015°04'5 9.8
2017-Aug-14 12:00N 55°19' E 015°11'0 0.0
2017-Aug-14 11:30N 55°19' E 015°11'4 7.6
2017-Aug-14 11:00N 55°17' E 015°06'611.9
2017-Aug-14 10:30N 55°13' E 014°58'2 3.3
2017-Aug-14 10:01N 55°14' E 015°00'510.9
2017-Aug-14 09:31N 55°18' E 015°07'3 5.4
2017-Aug-14 09:00N 55°19' E 015°11'  
Track history (hours):
 
Tides and Currents Weather Stations Pressure Air Temp Water Temp Dewpoint Dewpoint Depression Visibility Wind Speed Wind Dir Waves Ship Positions

Ertholm

Last reported at 2017-Aug-24 08:30 UTC. Time now 2017-Aug-24 08:39 UTC.
Position N 55°17' E 015°05'.

Length 38 m; draft 2.3 m.

Type: Ship. MMSI: 219000751.

Date/timePositionNaut miles runAvg speedWind from/ knotsBaromVisibWave heightAir tempDewpointWater temp
2017-Aug-24 08:30N 55°17' E 015°05'611.5
2017-Aug-24 08:00N 55°13' E 014°58'0 0.0
2017-Aug-24 07:30N 55°13' E 014°58'0 0.0
2017-Aug-24 06:57N 55°13' E 014°58'0 0.0
2017-Aug-24 06:29N 55°13' E 014°58'0 0.0
2017-Aug-24 06:00N 55°13' E 014°58'0 0.0
2017-Aug-24 05:30N 55°13' E 014°58'0 0.0
2017-Aug-24 05:01N 55°13' E 014°58'0 0.0
2017-Aug-24 04:29N 55°13' E 014°58'0 0.0
2017-Aug-24 04:00N 55°13' E 014°58'0 0.0
2017-Aug-24 03:29N 55°13' E 014°58'0 0.0
2017-Aug-24 03:00N 55°13' E 014°58'0 0.0
2017-Aug-24 02:31N 55°13' E 014°58'0 0.0
2017-Aug-24 02:01N 55°13' E 014°58'0 0.0
2017-Aug-24 01:30N 55°13' E 014°58'0 0.0
2017-Aug-24 00:57N 55°13' E 014°58'0 0.0
2017-Aug-24 00:30N 55°13' E 014°58'0 0.0
2017-Aug-24 00:00N 55°13' E 014°58'0 0.0
2017-Aug-23 23:30N 55°13' E 014°58'0 0.0
2017-Aug-23 22:59N 55°13' E 014°58'0 0.0
2017-Aug-23 22:30N 55°13' E 014°58'0 0.0
2017-Aug-23 21:59N 55°13' E 014°58'0 0.0
2017-Aug-23 21:27N 55°13' E 014°58'0 0.0
2017-Aug-23 20:59N 55°13' E 014°58'0 0.0
2017-Aug-23 20:30N 55°13' E 014°58'0 0.0
2017-Aug-23 20:00N 55°13' E 014°58'0 0.0
2017-Aug-23 19:30N 55°13' E 014°58'0 0.0
2017-Aug-23 19:00N 55°13' E 014°58'0 0.0
2017-Aug-23 18:31N 55°13' E 014°58'0 0.0
2017-Aug-23 18:00N 55°13' E 014°58'0 0.0
2017-Aug-23 17:29N 55°13' E 014°58'0 0.0
2017-Aug-23 16:52N 55°13' E 014°58'0 0.0
2017-Aug-23 16:31N 55°13' E 014°58'0 0.0
2017-Aug-23 15:59N 55°13' E 014°58'0 0.0
2017-Aug-23 15:30N 55°13' E 014°58'1 3.0
2017-Aug-23 15:00N 55°14' E 014°60'8 8.4
2017-Aug-23 14:00N 55°19' E 015°11'510.4
2017-Aug-23 13:31N 55°16' E 015°04'5 9.3
2017-Aug-23 13:00N 55°13' E 014°58'4 8.9
2017-Aug-23 12:30N 55°16' E 015°04'510.7
2017-Aug-23 12:00N 55°19' E 015°11'0 0.0
2017-Aug-23 11:30N 55°19' E 015°11'4 8.2
2017-Aug-23 11:01N 55°17' E 015°06'611.2
2017-Aug-23 10:30N 55°13' E 014°58'1 1.7
2017-Aug-23 10:00N 55°13' E 014°59'612.5
2017-Aug-23 09:30N 55°18' E 015°08'3 5.2
2017-Aug-23 09:00N 55°19' E 015°11'5 9.3
2017-Aug-23 08:30N 55°17' E 015°05'510.5
2017-Aug-23 08:01N 55°13' E 014°58'0 0.0
2017-Aug-23 07:30N 55°13' E 014°58'0 0.0
2017-Aug-23 06:57N 55°13' E 014°58'0 0.0
2017-Aug-23 06:28N 55°13' E 014°58'0 0.0
2017-Aug-23 05:59N 55°13' E 014°58'0 0.0
2017-Aug-23 05:29N 55°13' E 014°58'0 0.0
2017-Aug-23 04:53N 55°13' E 014°58'0 0.0
2017-Aug-23 04:27N 55°13' E 014°58'0 0.0
2017-Aug-23 03:59N 55°13' E 014°58'0 0.0
2017-Aug-23 03:28N 55°13' E 014°58'0 0.0
2017-Aug-23 03:01N 55°13' E 014°58'0 0.0
2017-Aug-23 02:30N 55°13' E 014°58'0 0.0
2017-Aug-23 02:00N 55°13' E 014°58'0 0.0
2017-Aug-23 01:31N 55°13' E 014°58'0 0.0
2017-Aug-23 01:00N 55°13' E 014°58'0 0.0
2017-Aug-23 00:30N 55°13' E 014°58'0 0.0
2017-Aug-22 23:57N 55°13' E 014°58'0 0.0
2017-Aug-22 23:28N 55°13' E 014°58'0 0.0
2017-Aug-22 22:59N 55°13' E 014°58'0 0.0
2017-Aug-22 22:26N 55°13' E 014°58'0 0.0
2017-Aug-22 21:58N 55°13' E 014°58'0 0.0
2017-Aug-22 21:24N 55°13' E 014°58'0 0.0
2017-Aug-22 20:50N 55°13' E 014°58'0 0.0
2017-Aug-22 20:22N 55°13' E 014°58'0 0.0
2017-Aug-22 19:49N 55°13' E 014°58'0 0.0
2017-Aug-22 19:27N 55°13' E 014°58'0 0.0
2017-Aug-22 19:00N 55°13' E 014°58'0 0.0
2017-Aug-22 18:28N 55°13' E 014°58'0 0.0
2017-Aug-22 18:00N 55°13' E 014°58'0 0.0
2017-Aug-22 17:30N 55°13' E 014°58'0 0.0
2017-Aug-22 17:00N 55°13' E 014°58'0 0.0
2017-Aug-22 16:28N 55°13' E 014°58'0 0.0
2017-Aug-22 15:58N 55°13' E 014°58'0 0.0
2017-Aug-22 15:31N 55°13' E 014°58'1 2.3
2017-Aug-22 15:00N 55°14' E 014°59'612.5
2017-Aug-22 14:30N 55°18' E 015°08'2 4.1
2017-Aug-22 14:00N 55°19' E 015°10'612.3
2017-Aug-22 13:31N 55°15' E 015°02'3 6.5
2017-Aug-22 13:01N 55°13' E 014°58'510.7
2017-Aug-22 12:30N 55°17' E 015°05'5 9.0
2017-Aug-22 12:00N 55°19' E 015°11'0 0.1
2017-Aug-22 11:30N 55°19' E 015°11'510.8
2017-Aug-22 11:00N 55°18' E 015°02'510.3
2017-Aug-22 10:29N 55°13' E 014°58'1 2.7
2017-Aug-22 10:00N 55°14' E 014°59'5 9.9
2017-Aug-22 09:31N 55°17' E 015°06'4 7.3
2017-Aug-22 09:00N 55°19' E 015°11'4 8.3
2017-Aug-22 08:30N 55°17' E 015°05'611.4
2017-Aug-22 08:00N 55°13' E 014°58'0 0.0
2017-Aug-22 07:31N 55°13' E 014°58'0 0.0
2017-Aug-22 07:00N 55°13' E 014°58'0 0.0
2017-Aug-22 06:29N 55°13' E 014°58'0 0.0
2017-Aug-22 06:00N 55°13' E 014°58'0 0.0
2017-Aug-22 05:30N 55°13' E 014°58'0 0.0
2017-Aug-22 04:58N 55°13' E 014°58'0 0.0
2017-Aug-22 04:30N 55°13' E 014°58'0 0.0
2017-Aug-22 04:00N 55°13' E 014°58'0 0.0
2017-Aug-22 03:30N 55°13' E 014°58'0 0.0
2017-Aug-22 03:01N 55°13' E 014°58'0 0.0
2017-Aug-22 02:31N 55°13' E 014°58'0 0.0
2017-Aug-22 01:59N 55°13' E 014°58'0 0.0
2017-Aug-22 01:28N 55°13' E 014°58'0 0.0
2017-Aug-22 00:58N 55°13' E 014°58'0 0.0
2017-Aug-22 00:30N 55°13' E 014°58'0 0.0
2017-Aug-22 00:00N 55°13' E 014°58'0 0.0
2017-Aug-21 23:29N 55°13' E 014°58'0 0.0
2017-Aug-21 22:59N 55°13' E 014°58'0 0.0
2017-Aug-21 22:31N 55°13' E 014°58'0 0.0
2017-Aug-21 21:59N 55°13' E 014°58'0 0.0
2017-Aug-21 21:29N 55°13' E 014°58'0 0.0
2017-Aug-21 20:59N 55°13' E 014°58'0 0.0
2017-Aug-21 20:30N 55°13' E 014°58'0 0.0
2017-Aug-21 20:01N 55°13' E 014°58'0 0.0
2017-Aug-21 19:30N 55°13' E 014°58'0 0.0
2017-Aug-21 19:01N 55°13' E 014°58'0 0.0
2017-Aug-21 18:30N 55°13' E 014°58'0 0.0
2017-Aug-21 17:59N 55°13' E 014°58'0 0.0
2017-Aug-21 17:30N 55°13' E 014°58'0 0.0
2017-Aug-21 17:00N 55°13' E 014°58'0 0.0
2017-Aug-21 16:29N 55°13' E 014°58'0 0.0
2017-Aug-21 15:59N 55°13' E 014°58'0 0.0
2017-Aug-21 15:30N 55°13' E 014°58'1 2.5
2017-Aug-21 15:01N 55°14' E 014°60'612.4
2017-Aug-21 14:31N 55°18' E 015°08'2 4.0
2017-Aug-21 14:01N 55°19' E 015°10'5 9.6
2017-Aug-21 13:30N 55°17' E 015°03'5 9.2
2017-Aug-21 13:00N 55°13' E 014°58'4 8.7
2017-Aug-21 12:30N 55°16' E 015°04'510.9
2017-Aug-21 12:00N 55°19' E 015°11'0 0.2
2017-Aug-21 11:30N 55°19' E 015°11'4 9.0
2017-Aug-21 11:01N 55°18' E 015°04'611.7
2017-Aug-21 10:30N 55°13' E 014°58'2 3.3
2017-Aug-21 10:00N 55°14' E 014°60'510.3
2017-Aug-21 09:31N 55°17' E 015°07'3 6.1
2017-Aug-21 09:00N 55°19' E 015°11'5 9.9
2017-Aug-21 08:31N 55°18' E 015°03'611.6
2017-Aug-21 08:00N 55°13' E 014°58'0 0.0
2017-Aug-21 07:30N 55°13' E 014°58'0 0.0
2017-Aug-21 07:00N 55°13' E 014°58'0 0.0
2017-Aug-21 06:31N 55°13' E 014°58'0 0.0
2017-Aug-21 06:00N 55°13' E 014°58'0 0.0
2017-Aug-21 05:30N 55°13' E 014°58'0 0.0
2017-Aug-21 05:00N 55°13' E 014°58'0 0.0
2017-Aug-21 04:31N 55°13' E 014°58'0 0.0
2017-Aug-21 04:01N 55°13' E 014°58'0 0.0
2017-Aug-21 03:30N 55°13' E 014°58'0 0.0
2017-Aug-21 03:00N 55°13' E 014°58'0 0.0
2017-Aug-21 02:30N 55°13' E 014°58'0 0.0
2017-Aug-21 02:01N 55°13' E 014°58'0 0.0
2017-Aug-21 01:30N 55°13' E 014°58'0 0.0
2017-Aug-21 01:00N 55°13' E 014°58'0 0.0
2017-Aug-21 00:30N 55°13' E 014°58'0 0.0
2017-Aug-21 00:01N 55°13' E 014°58'0 0.0
2017-Aug-20 23:29N 55°13' E 014°58'0 0.0
2017-Aug-20 22:58N 55°13' E 014°58'0 0.0
2017-Aug-20 22:30N 55°13' E 014°58'0 0.0
2017-Aug-20 22:00N 55°13' E 014°58'0 0.0
2017-Aug-20 21:30N 55°13' E 014°58'0 0.0
2017-Aug-20 21:01N 55°13' E 014°58'0 0.0
2017-Aug-20 20:29N 55°13' E 014°58'0 0.0
2017-Aug-20 20:01N 55°13' E 014°58'0 0.0
2017-Aug-20 19:30N 55°13' E 014°58'0 0.0
2017-Aug-20 19:00N 55°13' E 014°58'0 0.0
2017-Aug-20 18:29N 55°13' E 014°58'0 0.0
2017-Aug-20 18:00N 55°13' E 014°58'0 0.0
2017-Aug-20 17:30N 55°13' E 014°58'0 0.0
2017-Aug-20 17:00N 55°13' E 014°58'0 0.0
2017-Aug-20 16:29N 55°13' E 014°58'0 0.0
2017-Aug-20 16:01N 55°13' E 014°58'0 0.0
2017-Aug-20 15:30N 55°13' E 014°58'2 5.0
2017-Aug-20 15:00N 55°15' E 015°01'510.7
2017-Aug-20 14:30N 55°18' E 015°08'1 2.3
2017-Aug-20 14:00N 55°19' E 015°10'510.2
2017-Aug-20 13:31N 55°16' E 015°02'4 7.8
2017-Aug-20 13:00N 55°13' E 014°58'5 9.7
2017-Aug-20 12:31N 55°16' E 015°04'510.1
2017-Aug-20 12:00N 55°19' E 015°11'0 0.1
2017-Aug-20 11:30N 55°19' E 015°11'4 8.3
2017-Aug-20 11:00N 55°17' E 015°05'611.4
2017-Aug-20 10:30N 55°13' E 014°58'1 2.8
2017-Aug-20 10:00N 55°14' E 014°60'510.0
2017-Aug-20 09:30N 55°17' E 015°06'3 6.6
2017-Aug-20 09:00N 55°19' E 015°11'4 9.0
2017-Aug-20 08:31N 55°17' E 015°04'611.2
2017-Aug-20 08:00N 55°13' E 014°58'0 0.0
2017-Aug-20 07:31N 55°13' E 014°58'0 0.0
2017-Aug-20 07:00N 55°13' E 014°58'0 0.0
2017-Aug-20 06:30N 55°13' E 014°58'0 0.0
2017-Aug-20 05:59N 55°13' E 014°58'0 0.0
2017-Aug-20 05:30N 55°13' E 014°58'0 0.0
2017-Aug-20 05:01N 55°13' E 014°58'0 0.0
2017-Aug-20 04:29N 55°13' E 014°58'0 0.0
2017-Aug-20 03:59N 55°13' E 014°58'0 0.0
2017-Aug-20 03:30N 55°13' E 014°58'0 0.0
2017-Aug-20 03:00N 55°13' E 014°58'0 0.0
2017-Aug-20 02:30N 55°13' E 014°58'0 0.0
2017-Aug-20 02:00N 55°13' E 014°58'0 0.0
2017-Aug-20 01:29N 55°13' E 014°58'0 0.0
2017-Aug-20 00:59N 55°13' E 014°58'0 0.0
2017-Aug-20 00:30N 55°13' E 014°58'0 0.0
2017-Aug-20 00:00N 55°13' E 014°58'0 0.0
2017-Aug-19 23:30N 55°13' E 014°58'0 0.0
2017-Aug-19 23:00N 55°13' E 014°58'0 0.0
2017-Aug-19 22:29N 55°13' E 014°58'0 0.0
2017-Aug-19 22:00N 55°13' E 014°58'0 0.0
2017-Aug-19 21:30N 55°13' E 014°58'0 0.0
2017-Aug-19 20:59N 55°13' E 014°58'0 0.0
2017-Aug-19 20:30N 55°13' E 014°58'0 0.0
2017-Aug-19 20:00N 55°13' E 014°58'0 0.0
2017-Aug-19 19:30N 55°13' E 014°58'0 0.0
2017-Aug-19 19:01N 55°13' E 014°58'0 0.0
2017-Aug-19 18:30N 55°13' E 014°58'0 0.0
2017-Aug-19 18:00N 55°13' E 014°58'0 0.0
2017-Aug-19 17:28N 55°13' E 014°58'0 0.0
2017-Aug-19 17:00N 55°13' E 014°58'0 0.0
2017-Aug-19 16:27N 55°13' E 014°58'0 0.0
2017-Aug-19 16:00N 55°13' E 014°58'0 0.0
2017-Aug-19 15:30N 55°13' E 014°58'1 2.7
2017-Aug-19 15:01N 55°14' E 015°00'8 8.1
2017-Aug-19 14:01N 55°19' E 015°10'510.9
2017-Aug-19 13:30N 55°16' E 015°02'4 8.3
2017-Aug-19 13:01N 55°13' E 014°58'510.2
2017-Aug-19 12:30N 55°16' E 015°06'5 9.4
2017-Aug-19 12:00N 55°19' E 015°11'0 0.0
2017-Aug-19 11:30N 55°19' E 015°11'5 9.7
2017-Aug-19 11:00N 55°17' E 015°03'510.5
2017-Aug-19 10:31N 55°13' E 014°58'1 2.4
2017-Aug-19 10:01N 55°14' E 015°00'510.1
2017-Aug-19 09:30N 55°17' E 015°06'3 6.9
2017-Aug-19 09:00N 55°19' E 015°11'5 9.3
2017-Aug-19 08:30N 55°17' E 015°04'510.7
2017-Aug-19 08:00N 55°13' E 014°58'0 0.0
2017-Aug-19 07:30N 55°13' E 014°58'0 0.0
2017-Aug-19 07:00N 55°13' E 014°58'0 0.0
2017-Aug-19 06:30N 55°13' E 014°58'0 0.0
2017-Aug-19 06:00N 55°13' E 014°58'0 0.0
2017-Aug-19 05:30N 55°13' E 014°58'0 0.0
2017-Aug-19 05:01N 55°13' E 014°58'0 0.0
2017-Aug-19 04:30N 55°13' E 014°58'0 0.0
2017-Aug-19 04:00N 55°13' E 014°58'0 0.0
2017-Aug-19 03:30N 55°13' E 014°58'0 0.0
2017-Aug-19 03:00N 55°13' E 014°58'0 0.0
2017-Aug-19 02:31N 55°13' E 014°58'0 0.0
2017-Aug-19 02:00N 55°13' E 014°58'0 0.0
2017-Aug-19 01:30N 55°13' E 014°58'0 0.0
2017-Aug-19 00:59N 55°13' E 014°58'0 0.0
2017-Aug-19 00:30N 55°13' E 014°58'0 0.0
2017-Aug-19 00:00N 55°13' E 014°58'0 0.0
2017-Aug-18 23:30N 55°13' E 014°58'0 0.0
2017-Aug-18 23:00N 55°13' E 014°58'0 0.0
2017-Aug-18 22:31N 55°13' E 014°58'0 0.0
2017-Aug-18 21:59N 55°13' E 014°58'0 0.0
2017-Aug-18 21:30N 55°13' E 014°58'0 0.0
2017-Aug-18 21:01N 55°13' E 014°58'0 0.0
2017-Aug-18 20:30N 55°13' E 014°58'0 0.0
2017-Aug-18 20:00N 55°13' E 014°58'0 0.0
2017-Aug-18 19:30N 55°13' E 014°58'0 0.0
2017-Aug-18 18:59N 55°13' E 014°58'0 0.0
2017-Aug-18 18:30N 55°13' E 014°58'0 0.0
2017-Aug-18 18:00N 55°13' E 014°58'0 0.0
2017-Aug-18 17:30N 55°13' E 014°58'0 0.0
2017-Aug-18 17:00N 55°13' E 014°58'0 0.0
2017-Aug-18 16:30N 55°13' E 014°58'0 0.0
2017-Aug-18 16:00N 55°13' E 014°58'0 0.0
2017-Aug-18 15:31N 55°13' E 014°58'1 2.6
2017-Aug-18 15:00N 55°14' E 014°60'612.0
2017-Aug-18 14:30N 55°18' E 015°08'4 3.5
2017-Aug-18 13:30N 55°15' E 015°03'4 7.7
2017-Aug-18 13:01N 55°13' E 014°58'5 9.1
2017-Aug-18 12:31N 55°16' E 015°04'510.5
2017-Aug-18 12:00N 55°19' E 015°11'0 0.0
2017-Aug-18 11:30N 55°19' E 015°11'4 7.9
2017-Aug-18 11:00N 55°17' E 015°06'611.5
2017-Aug-18 10:30N 55°13' E 014°58'1 2.3
2017-Aug-18 10:01N 55°14' E 014°60'510.7
2017-Aug-18 09:30N 55°17' E 015°07'3 6.4
2017-Aug-18 09:00N 55°19' E 015°11'4 8.6
2017-Aug-18 08:31N 55°17' E 015°05'611.1
2017-Aug-18 08:01N 55°13' E 014°58'0 0.0
2017-Aug-18 07:30N 55°13' E 014°58'0 0.0
2017-Aug-18 07:00N 55°13' E 014°58'0 0.0
2017-Aug-18 06:30N 55°13' E 014°58'0 0.0
2017-Aug-18 06:00N 55°13' E 014°58'0 0.0
2017-Aug-18 05:27N 55°13' E 014°58'0 0.0
2017-Aug-18 05:00N 55°13' E 014°58'0 0.0
2017-Aug-18 04:30N 55°13' E 014°58'0 0.0
2017-Aug-18 04:00N 55°13' E 014°58'0 0.0
2017-Aug-18 03:30N 55°13' E 014°58'0 0.0
2017-Aug-18 03:01N 55°13' E 014°58'0 0.0
2017-Aug-18 02:31N 55°13' E 014°58'0 0.0
2017-Aug-18 02:00N 55°13' E 014°58'0 0.0
2017-Aug-18 01:31N 55°13' E 014°58'0 0.0
2017-Aug-18 01:01N 55°13' E 014°58'0 0.0
2017-Aug-18 00:30N 55°13' E 014°58'0 0.0
2017-Aug-18 00:01N 55°13' E 014°58'0 0.0
2017-Aug-17 23:30N 55°13' E 014°58'0 0.0
2017-Aug-17 23:01N 55°13' E 014°58'0 0.0
2017-Aug-17 22:30N 55°13' E 014°58'0 0.0
2017-Aug-17 22:01N 55°13' E 014°58'0 0.0
2017-Aug-17 21:30N 55°13' E 014°58'0 0.0
2017-Aug-17 21:00N 55°13' E 014°58'0 0.0
2017-Aug-17 20:30N 55°13' E 014°58'0 0.0
2017-Aug-17 20:00N 55°13' E 014°58'0 0.0
2017-Aug-17 19:30N 55°13' E 014°58'0 0.0
2017-Aug-17 19:00N 55°13' E 014°58'0 0.0
2017-Aug-17 18:31N 55°13' E 014°58'0 0.0
2017-Aug-17 18:01N 55°13' E 014°58'0 0.0
2017-Aug-17 17:30N 55°13' E 014°58'0 0.0
2017-Aug-17 17:00N 55°13' E 014°58'0 0.0
2017-Aug-17 16:31N 55°13' E 014°58'0 0.0
2017-Aug-17 16:00N 55°13' E 014°58'0 0.0
2017-Aug-17 15:30N 55°13' E 014°58'2 3.4
2017-Aug-17 15:00N 55°14' E 015°00'611.8
2017-Aug-17 14:30N 55°18' E 015°08'2 4.6
2017-Aug-17 14:01N 55°19' E 015°11'510.4
2017-Aug-17 13:30N 55°16' E 015°04'5 9.2
2017-Aug-17 13:00N 55°13' E 014°58'4 8.7
2017-Aug-17 12:31N 55°16' E 015°04'510.9
2017-Aug-17 12:00N 55°19' E 015°11'0 0.0
2017-Aug-17 11:30N 55°19' E 015°11'4 8.1
2017-Aug-17 11:00N 55°17' E 015°06'611.3
2017-Aug-17 10:30N 55°13' E 014°58'1 2.8
2017-Aug-17 10:00N 55°14' E 015°00'510.9
2017-Aug-17 09:30N 55°17' E 015°07'3 5.7
2017-Aug-17 09:00N 55°19' E 015°11'4 8.3
2017-Aug-17 08:30N 55°17' E 015°05'611.4
2017-Aug-17 08:00N 55°13' E 014°58'0 0.0
2017-Aug-17 07:30N 55°13' E 014°58'0 0.0
2017-Aug-17 07:00N 55°13' E 014°58'0 0.0
2017-Aug-17 06:30N 55°13' E 014°58'0 0.0
2017-Aug-17 06:00N 55°13' E 014°58'0 0.0
2017-Aug-17 05:30N 55°13' E 014°58'0 0.0
2017-Aug-17 05:00N 55°13' E 014°58'0 0.0
2017-Aug-17 04:30N 55°13' E 014°58'0 0.0
2017-Aug-17 04:01N 55°13' E 014°58'0 0.0
2017-Aug-17 03:30N 55°13' E 014°58'0 0.0
2017-Aug-17 02:59N 55°13' E 014°58'0 0.0
2017-Aug-17 02:30N 55°13' E 014°58'0 0.0
2017-Aug-17 02:00N 55°13' E 014°58'0 0.0
2017-Aug-17 01:30N 55°13' E 014°58'0 0.0
2017-Aug-17 01:01N 55°13' E 014°58'0 0.0
2017-Aug-17 00:30N 55°13' E 014°58'0 0.0
2017-Aug-17 00:00N 55°13' E 014°58'0 0.0
2017-Aug-16 23:30N 55°13' E 014°58'0 0.0
2017-Aug-16 23:00N 55°13' E 014°58'0 0.0
2017-Aug-16 22:31N 55°13' E 014°58'0 0.0
2017-Aug-16 22:01N 55°13' E 014°58'0 0.0
2017-Aug-16 21:30N 55°13' E 014°58'0 0.0
2017-Aug-16 21:00N 55°13' E 014°58'0 0.0
2017-Aug-16 20:31N 55°13' E 014°58'0 0.0
2017-Aug-16 20:00N 55°13' E 014°58'5 9.9
2017-Aug-16 19:30N 55°16' E 015°05'5 9.7
2017-Aug-16 19:00N 55°19' E 015°11'0 0.0
2017-Aug-16 18:30N 55°19' E 015°11'0 0.0
2017-Aug-16 18:00N 55°19' E 015°11'0 0.0
2017-Aug-16 17:30N 55°19' E 015°11'0 0.0
2017-Aug-16 17:00N 55°19' E 015°11'0 0.0
2017-Aug-16 16:30N 55°19' E 015°11'0 0.3
2017-Aug-16 16:01N 55°19' E 015°11'612.9
2017-Aug-16 15:30N 55°15' E 015°03'2 4.7
2017-Aug-16 15:00N 55°14' E 014°60'612.5
2017-Aug-16 14:30N 55°18' E 015°08'3 5.1
2017-Aug-16 14:01N 55°19' E 015°11'510.8
2017-Aug-16 13:30N 55°16' E 015°04'4 8.9
2017-Aug-16 13:00N 55°13' E 014°58'4 9.0
2017-Aug-16 12:30N 55°16' E 015°04'510.8
2017-Aug-16 12:00N 55°19' E 015°11'0 0.1
2017-Aug-16 11:30N 55°19' E 015°11'4 8.0
2017-Aug-16 11:00N 55°17' E 015°06'611.4
2017-Aug-16 10:30N 55°13' E 014°58'0 0.9
2017-Aug-16 10:00N 55°13' E 014°59'510.5
2017-Aug-16 09:30N 55°17' E 015°06'4 8.2
2017-Aug-16 09:00N 55°19' E 015°11'4 8.2
2017-Aug-16 08:31N 55°17' E 015°06'611.3
2017-Aug-16 08:00N 55°13' E 014°58'0 0.0
2017-Aug-16 07:30N 55°13' E 014°58'0 0.0
2017-Aug-16 07:00N 55°13' E 014°58'0 0.0
2017-Aug-16 06:31N 55°13' E 014°58'0 0.0
2017-Aug-16 05:59N 55°13' E 014°58'0 0.0
2017-Aug-16 05:30N 55°13' E 014°58'0 0.0
2017-Aug-16 05:01N 55°13' E 014°58'0 0.0
2017-Aug-16 04:31N 55°13' E 014°58'0 0.0
2017-Aug-16 04:00N 55°13' E 014°58'0 0.0
2017-Aug-16 03:31N 55°13' E 014°58'0 0.0
2017-Aug-16 03:00N 55°13' E 014°58'0 0.0
2017-Aug-16 02:30N 55°13' E 014°58'0 0.0
2017-Aug-16 02:00N 55°13' E 014°58'0 0.0
2017-Aug-16 01:30N 55°13' E 014°58'0 0.0
2017-Aug-16 01:00N 55°13' E 014°58'0 0.0
2017-Aug-16 00:30N 55°13' E 014°58'0 0.0
2017-Aug-16 00:00N 55°13' E 014°58'0 0.0
2017-Aug-15 23:30N 55°13' E 014°58'0 0.0
2017-Aug-15 23:00N 55°13' E 014°58'0 0.0
2017-Aug-15 22:30N 55°13' E 014°58'0 0.0
2017-Aug-15 22:00N 55°13' E 014°58'0 0.0
2017-Aug-15 21:31N 55°13' E 014°58'0 0.0
2017-Aug-15 21:01N 55°13' E 014°58'0 0.0
2017-Aug-15 20:30N 55°13' E 014°58'0 0.0
2017-Aug-15 20:01N 55°13' E 014°58'0 0.0
2017-Aug-15 19:30N 55°13' E 014°58'0 0.0
2017-Aug-15 19:00N 55°13' E 014°58'0 0.0
2017-Aug-15 18:30N 55°13' E 014°58'0 0.0
2017-Aug-15 18:00N 55°13' E 014°58'0 0.0
2017-Aug-15 17:30N 55°13' E 014°58'0 0.0
2017-Aug-15 17:00N 55°13' E 014°58'0 0.0
2017-Aug-15 16:30N 55°13' E 014°58'0 0.0
2017-Aug-15 16:00N 55°13' E 014°58'0 0.0
2017-Aug-15 15:30N 55°13' E 014°58'1 2.0
2017-Aug-15 15:00N 55°13' E 014°59'612.6
2017-Aug-15 14:30N 55°18' E 015°08'2 4.8
2017-Aug-15 14:00N 55°19' E 015°11'611.3
2017-Aug-15 13:30N 55°16' E 015°04'4 8.3
2017-Aug-15 13:01N 55°13' E 014°58'4 8.6
2017-Aug-15 12:30N 55°16' E 015°03'611.2
2017-Aug-15 12:01N 55°19' E 015°11'0 0.1
2017-Aug-15 11:30N 55°19' E 015°11'3 6.9
2017-Aug-15 11:00N 55°17' E 015°06'612.5
2017-Aug-15 10:30N 55°13' E 014°58'1 2.8
2017-Aug-15 10:00N 55°14' E 014°60'510.3
2017-Aug-15 09:31N 55°17' E 015°07'3 6.3
2017-Aug-15 09:00N 55°19' E 015°11'4 7.8
2017-Aug-15 08:30N 55°17' E 015°06'611.8
2017-Aug-15 08:00N 55°13' E 014°58'0 0.0
2017-Aug-15 07:30N 55°13' E 014°58'0 0.0
2017-Aug-15 06:59N 55°13' E 014°58'0 0.0
2017-Aug-15 06:30N 55°13' E 014°58'0 0.0
2017-Aug-15 06:00N 55°13' E 014°58'0 0.0
2017-Aug-15 05:30N 55°13' E 014°58'0 0.0
2017-Aug-15 05:00N 55°13' E 014°58'0 0.0
2017-Aug-15 04:30N 55°13' E 014°58'0 0.0
2017-Aug-15 04:00N 55°13' E 014°58'0 0.0
2017-Aug-15 03:30N 55°13' E 014°58'0 0.0
2017-Aug-15 03:00N 55°13' E 014°58'0 0.0
2017-Aug-15 02:30N 55°13' E 014°58'0 0.0
2017-Aug-15 02:00N 55°13' E 014°58'0 0.0
2017-Aug-15 01:30N 55°13' E 014°58'0 0.0
2017-Aug-15 01:00N 55°13' E 014°58'0 0.0
2017-Aug-15 00:31N 55°13' E 014°58'0 0.0
2017-Aug-15 00:00N 55°13' E 014°58'0 0.0
2017-Aug-14 23:30N 55°13' E 014°58'0 0.0
2017-Aug-14 23:00N 55°13' E 014°58'0 0.0
2017-Aug-14 22:31N 55°13' E 014°58'0 0.0
2017-Aug-14 22:00N 55°13' E 014°58'0 0.0
2017-Aug-14 21:30N 55°13' E 014°58'0 0.0
2017-Aug-14 21:00N 55°13' E 014°58'0 0.0
2017-Aug-14 20:30N 55°13' E 014°58'0 0.0
2017-Aug-14 20:00N 55°13' E 014°58'0 0.0
2017-Aug-14 19:30N 55°13' E 014°58'0 0.0
2017-Aug-14 19:00N 55°13' E 014°58'0 0.0
2017-Aug-14 18:31N 55°13' E 014°58'0 0.0
2017-Aug-14 18:01N 55°13' E 014°58'0 0.0
2017-Aug-14 17:30N 55°13' E 014°58'0 0.0
2017-Aug-14 17:00N 55°13' E 014°58'0 0.0
2017-Aug-14 16:30N 55°13' E 014°58'0 0.0
2017-Aug-14 16:00N 55°13' E 014°58'0 0.0
2017-Aug-14 15:30N 55°13' E 014°58'1 1.0
2017-Aug-14 15:00N 55°13' E 014°59'612.9
2017-Aug-14 14:30N 55°18' E 015°07'3 5.9
2017-Aug-14 14:01N 55°19' E 015°11'510.9
2017-Aug-14 13:30N 55°16' E 015°04'4 8.7
2017-Aug-14 13:01N 55°13' E 014°58'5 9.6
2017-Aug-14 12:30N 55°16' E 015°04'5 9.8
2017-Aug-14 12:00N 55°19' E 015°11'0 0.0
2017-Aug-14 11:30N 55°19' E 015°11'4 7.6
2017-Aug-14 11:00N 55°17' E 015°06'611.9
2017-Aug-14 10:30N 55°13' E 014°58'2 3.3
2017-Aug-14 10:01N 55°14' E 015°00'510.9
2017-Aug-14 09:31N 55°18' E 015°07'3 5.4
2017-Aug-14 09:00N 55°19' E 015°11'  

Dump ship's entire track history